Time;durP1;ratioP1;P1;durP2;ratioP2;P2;SDS_P1;SDS_P2;PMS_P1;PMS_P2;Temp;Humidity;BMP_temperature;BMP_pressure;BME280_temperature;BME280_humidity;BME280_pressure;Samples;Min_cycle;Max_cycle;Signal;HPM_P1;HPM_P2
2022/08/25 00:00:59;;;;;;;2.28;1.65;;;25.30;51.50;;;;;;5081425;28;20048;-64
2022/08/25 00:03:25;;;;;;;2.05;1.58;;;25.30;51.50;;;;;;5080034;28;20090;-65
2022/08/25 00:05:50;;;;;;;2.38;1.70;;;25.30;51.50;;;;;;5080355;28;20028;-65
2022/08/25 00:08:16;;;;;;;2.10;1.60;;;25.30;51.50;;;;;;5082646;28;20375;-66
2022/08/25 00:10:41;;;;;;;2.10;1.52;;;25.30;51.50;;;;;;5079718;28;20080;-65
2022/08/25 00:13:08;;;;;;;1.65;1.40;;;25.30;51.50;;;;;;5081706;28;20510;-66
2022/08/25 00:15:34;;;;;;;1.80;1.50;;;25.30;51.50;;;;;;5079853;28;20430;-66
2022/08/25 00:18:00;;;;;;;2.40;1.90;;;25.30;51.50;;;;;;5096619;28;20024;-65
2022/08/25 00:20:28;;;;;;;2.30;1.60;;;25.30;51.50;;;;;;5079908;28;20108;-65
2022/08/25 00:22:55;;;;;;;2.22;1.67;;;25.30;51.50;;;;;;5079046;28;20035;-65
2022/08/25 00:25:21;;;;;;;2.30;1.50;;;25.30;51.50;;;;;;5080762;28;20028;-66
2022/08/25 00:27:47;;;;;;;1.98;1.50;;;25.30;51.80;;;;;;5081129;28;20034;-66
2022/08/25 00:30:15;;;;;;;2.08;1.58;;;25.30;51.50;;;;;;5079883;28;20029;-65
2022/08/25 00:32:41;;;;;;;2.20;1.60;;;25.30;51.50;;;;;;5079215;28;20425;-64
2022/08/25 00:35:06;;;;;;;2.20;1.50;;;25.30;51.50;;;;;;5079638;28;20029;-66
2022/08/25 00:37:32;;;;;;;2.05;1.60;;;25.30;51.50;;;;;;5081426;28;20447;-65
2022/08/25 00:39:57;;;;;;;1.92;1.65;;;25.30;51.50;;;;;;5080079;28;20380;-65
2022/08/25 00:42:24;;;;;;;1.98;1.50;;;25.30;51.50;;;;;;5081217;28;20024;-65
2022/08/25 00:44:49;;;;;;;2.38;1.70;;;25.30;51.50;;;;;;5080129;28;20041;-66
2022/08/25 00:47:16;;;;;;;2.35;1.70;;;25.30;51.50;;;;;;5082356;28;20662;-66
2022/08/25 00:49:46;;;;;;;2.40;1.83;;;25.30;51.40;;;;;;5085257;28;20106;-67
2022/08/25 00:52:36;;;;;;;2.13;1.67;;;25.30;51.40;;;;;;5083505;28;20021;-66
2022/08/25 00:55:11;;;;;;;2.50;1.90;;;25.30;51.50;;;;;;5081307;28;20403;-65
2022/08/25 00:57:53;;;;;;;2.10;1.60;;;25.30;51.50;;;;;;5084524;28;20369;-66
2022/08/25 01:00:29;;;;;;;2.28;1.65;;;25.30;51.50;;;;;;5079561;28;20020;-66
2022/08/25 01:02:56;;;;;;;2.70;1.70;;;25.30;51.50;;;;;;5083289;28;20094;-65
2022/08/25 01:05:24;;;;;;;2.35;1.70;;;25.30;51.50;;;;;;5085078;28;20024;-66
2022/08/25 01:07:51;;;;;;;1.90;1.60;;;25.30;51.50;;;;;;5083035;28;20043;-64
2022/08/25 01:10:18;;;;;;;1.98;1.55;;;25.30;51.50;;;;;;5082486;28;20043;-65
2022/08/25 01:12:44;;;;;;;2.00;1.50;;;25.30;51.40;;;;;;5084914;28;20071;-66
2022/08/25 01:15:12;;;;;;;2.50;1.80;;;25.30;51.50;;;;;;5082829;28;20062;-65
2022/08/25 01:17:46;;;;;;;2.30;1.75;;;25.30;51.50;;;;;;5084562;28;20027;-67
2022/08/25 01:20:13;;;;;;;2.17;1.55;;;25.30;51.50;;;;;;5081148;28;20071;-66
2022/08/25 01:22:39;;;;;;;2.63;1.70;;;25.30;51.40;;;;;;5082840;28;20031;-66
2022/08/25 01:25:17;;;;;;;1.95;1.55;;;25.30;51.40;;;;;;5082467;28;20051;-65
2022/08/25 01:27:43;;;;;;;2.33;1.60;;;25.30;51.50;;;;;;5083293;28;20025;-66
2022/08/25 01:30:09;;;;;;;2.30;1.67;;;25.20;51.40;;;;;;5084002;28;20050;-66
2022/08/25 01:32:35;;;;;;;2.25;1.50;;;25.20;51.40;;;;;;5082391;28;20024;-66
2022/08/25 01:35:00;;;;;;;2.42;1.80;;;25.20;51.40;;;;;;5082236;28;20070;-66
2022/08/25 01:37:26;;;;;;;2.08;1.63;;;25.20;51.40;;;;;;5082549;28;20028;-66
2022/08/25 01:39:52;;;;;;;2.63;1.80;;;25.20;51.40;;;;;;5084480;28;20464;-66
2022/08/25 01:42:23;;;;;;;2.00;1.60;;;25.20;51.40;;;;;;5082468;28;20033;-66
2022/08/25 01:44:48;;;;;;;2.15;1.63;;;25.20;51.40;;;;;;5083336;28;20024;-65
2022/08/25 01:47:15;;;;;;;2.17;1.60;;;25.20;51.40;;;;;;5084487;28;20043;-66
2022/08/25 01:49:41;;;;;;;2.10;1.50;;;25.20;51.40;;;;;;5084503;28;20479;-64
2022/08/25 01:52:10;;;;;;;2.35;1.80;;;25.20;51.30;;;;;;5082624;28;20027;-65
2022/08/25 01:54:36;;;;;;;2.10;1.67;;;25.20;51.40;;;;;;5084087;28;20028;-65
2022/08/25 01:57:02;;;;;;;2.30;1.80;;;25.20;51.40;;;;;;5082321;28;20028;-66
2022/08/25 01:59:27;;;;;;;2.45;1.75;;;25.20;51.40;;;;;;5084000;28;20043;-65
2022/08/25 02:01:53;;;;;;;2.22;1.75;;;25.20;51.40;;;;;;5081640;28;20177;-66
2022/08/25 02:04:19;;;;;;;2.63;1.70;;;25.20;51.40;;;;;;5082026;28;20514;-65
2022/08/25 02:06:44;;;;;;;2.20;1.67;;;25.20;51.40;;;;;;5083235;28;20048;-65
2022/08/25 02:09:13;;;;;;;2.70;1.63;;;25.20;51.40;;;;;;5080753;28;20016;-65
2022/08/25 02:11:42;;;;;;;2.10;1.60;;;25.20;51.40;;;;;;5083021;28;20021;-65
2022/08/25 02:14:10;;;;;;;2.42;1.70;;;25.20;51.30;;;;;;5082787;28;20344;-65
2022/08/25 02:16:37;;;;;;;2.20;1.70;;;25.20;51.40;;;;;;5083494;28;20331;-64
2022/08/25 02:19:05;;;;;;;1.90;1.60;;;25.20;51.40;;;;;;5082037;28;20039;-66
2022/08/25 02:21:32;;;;;;;2.28;1.63;;;25.20;51.40;;;;;;5082667;28;20078;-65
2022/08/25 02:23:57;;;;;;;2.20;1.70;;;25.20;51.30;;;;;;5081721;28;20392;-65
2022/08/25 02:26:23;;;;;;;2.30;1.70;;;25.20;51.40;;;;;;5083840;28;20024;-64
2022/08/25 02:28:50;;;;;;;2.10;1.70;;;25.20;51.30;;;;;;5083084;28;20484;-65
2022/08/25 02:31:18;;;;;;;1.98;1.70;;;25.20;51.30;;;;;;5080080;28;20123;-65
2022/08/25 02:33:44;;;;;;;2.20;1.77;;;25.20;51.30;;;;;;5081572;28;20548;-65
2022/08/25 02:36:10;;;;;;;1.98;1.60;;;25.20;51.40;;;;;;5082666;28;20032;-65
2022/08/25 02:38:37;;;;;;;2.47;1.70;;;25.20;51.30;;;;;;5081817;28;20044;-65
2022/08/25 02:41:11;;;;;;;1.95;1.50;;;25.20;51.30;;;;;;5082159;28;20103;-65
2022/08/25 02:43:38;;;;;;;2.30;1.55;;;25.20;51.30;;;;;;5080135;28;20028;-65
2022/08/25 02:46:04;;;;;;;2.05;1.52;;;25.20;51.30;;;;;;5081475;28;20383;-66
2022/08/25 02:48:30;;;;;;;2.03;1.60;;;25.20;51.30;;;;;;5082376;28;20040;-65
2022/08/25 02:50:59;;;;;;;2.30;1.65;;;25.20;51.30;;;;;;5080896;28;20510;-64
2022/08/25 02:53:26;;;;;;;1.98;1.55;;;25.10;51.30;;;;;;5082048;28;20059;-66
2022/08/25 02:55:52;;;;;;;1.85;1.42;;;25.20;51.30;;;;;;5081860;28;20415;-65
2022/08/25 02:58:18;;;;;;;2.17;1.65;;;25.10;51.30;;;;;;5081784;28;20036;-65
2022/08/25 03:00:44;;;;;;;1.80;1.42;;;25.20;51.30;;;;;;5081855;28;20039;-65
2022/08/25 03:03:11;;;;;;;1.85;1.38;;;25.10;51.30;;;;;;5081040;28;20070;-66
2022/08/25 03:05:37;;;;;;;2.05;1.60;;;25.10;51.30;;;;;;5081897;28;20028;-65
2022/08/25 03:08:04;;;;;;;2.78;1.67;;;25.10;51.30;;;;;;5081975;28;20039;-65
2022/08/25 03:10:30;;;;;;;2.13;1.58;;;25.10;51.30;;;;;;5080420;28;20501;-65
2022/08/25 03:12:56;;;;;;;2.03;1.42;;;25.10;51.30;;;;;;5082027;28;20496;-65
2022/08/25 03:15:24;;;;;;;2.00;1.50;;;25.10;51.30;;;;;;5080946;28;20082;-66
2022/08/25 03:17:50;;;;;;;2.30;1.50;;;25.10;51.70;;;;;;5080912;28;20444;-66
2022/08/25 03:20:16;;;;;;;1.92;1.50;;;25.10;51.20;;;;;;5081069;28;20089;-65
2022/08/25 03:22:42;;;;;;;1.83;1.30;;;25.10;51.30;;;;;;5082139;28;20484;-65
2022/08/25 03:27:53;;;;;;;2.13;1.58;;;25.10;51.20;;;;;;5082694;28;20031;-65
2022/08/25 03:30:19;;;;;;;1.80;1.42;;;25.10;51.30;;;;;;5081171;28;20028;-67
2022/08/25 03:32:45;;;;;;;2.10;1.67;;;25.10;51.30;;;;;;5080945;28;20525;-65
2022/08/25 03:35:11;;;;;;;2.17;1.40;;;25.10;51.30;;;;;;5080542;28;20066;-64
2022/08/25 03:37:38;;;;;;;1.98;1.40;;;25.10;51.30;;;;;;5082333;28;20476;-66
2022/08/25 03:40:08;;;;;;;2.03;1.50;;;25.10;51.20;;;;;;5081518;28;20024;-65
2022/08/25 03:42:34;;;;;;;2.10;1.55;;;25.10;51.30;;;;;;5080038;28;20542;-65
2022/08/25 03:45:04;;;;;;;1.95;1.40;;;25.10;51.30;;;;;;5079182;28;20036;-64
2022/08/25 03:47:30;;;;;;;;;;;25.10;51.30;;;;;;5070443;28;20042;-65
2022/08/25 03:49:56;;;;;;;1.92;1.50;;;25.10;51.30;;;;;;5081219;28;19994;-66
2022/08/25 03:52:22;;;;;;;2.17;1.52;;;25.10;51.30;;;;;;5081759;28;20478;-65
2022/08/25 03:54:48;;;;;;;2.15;1.60;;;25.10;51.20;;;;;;5081664;28;20059;-65
2022/08/25 03:57:14;;;;;;;2.45;1.60;;;25.10;51.20;;;;;;5080330;28;20017;-64
2022/08/25 03:59:40;;;;;;;1.60;1.30;;;25.10;51.20;;;;;;5080614;28;20058;-65
2022/08/25 04:02:07;;;;;;;2.08;1.52;;;25.10;51.20;;;;;;5081331;28;20024;-64
2022/08/25 04:04:33;;;;;;;1.70;1.40;;;25.10;51.70;;;;;;5079153;28;20177;-64
2022/08/25 04:06:59;;;;;;;2.08;1.52;;;25.10;51.20;;;;;;5080563;28;20067;-65
2022/08/25 04:09:25;;;;;;;2.13;1.48;;;25.10;51.20;;;;;;5080838;28;20424;-66
2022/08/25 04:11:51;;;;;;;2.92;1.50;;;25.10;51.20;;;;;;5080671;28;20024;-65
2022/08/25 04:14:18;;;;;;;1.95;1.50;;;25.10;51.20;;;;;;5081787;28;20059;-66
2022/08/25 04:16:43;;;;;;;1.98;1.48;;;25.10;51.20;;;;;;5079936;28;20384;-65
2022/08/25 04:19:11;;;;;;;2.22;1.60;;;25.10;51.20;;;;;;5082190;28;20030;-65
2022/08/25 04:21:39;;;;;;;2.00;1.40;;;25.10;51.20;;;;;;5080623;28;20498;-66
2022/08/25 04:24:07;;;;;;;1.95;1.40;;;25.10;51.30;;;;;;5083796;28;20024;-65
2022/08/25 04:26:36;;;;;;;2.00;1.50;;;25.10;51.20;;;;;;5084178;28;20024;-66
2022/08/25 04:29:04;;;;;;;2.00;1.50;;;25.10;51.20;;;;;;5084648;28;20025;-65
2022/08/25 04:31:31;;;;;;;1.70;1.42;;;25.10;51.20;;;;;;5083713;28;20041;-66
2022/08/25 04:33:57;;;;;;;1.48;1.30;;;25.10;51.20;;;;;;5085482;28;20024;-67
2022/08/25 04:36:23;;;;;;;1.85;1.48;;;25.10;51.20;;;;;;5083638;28;20029;-66
2022/08/25 04:38:49;;;;;;;2.35;1.77;;;25.10;51.30;;;;;;5084782;28;20036;-66
2022/08/25 04:41:18;;;;;;;1.70;1.42;;;25.10;51.20;;;;;;5084948;28;20384;-67
2022/08/25 04:43:44;;;;;;;2.05;1.60;;;25.00;51.10;;;;;;5084345;28;20135;-64
2022/08/25 04:46:22;;;;;;;1.90;1.48;;;25.00;51.20;;;;;;5084276;28;20391;-65
2022/08/25 04:48:50;;;;;;;1.75;1.50;;;25.00;51.20;;;;;;5083958;28;20567;-65
2022/08/25 04:51:22;;;;;;;1.80;1.40;;;25.00;51.10;;;;;;5084639;28;20028;-64
2022/08/25 04:53:48;;;;;;;1.98;1.42;;;25.00;51.10;;;;;;5083029;28;20525;-64
2022/08/25 04:56:16;;;;;;;1.80;1.38;;;25.00;51.10;;;;;;5085321;28;20020;-65
2022/08/25 04:58:41;;;;;;;1.70;1.33;;;25.00;51.10;;;;;;5084674;28;20036;-66
2022/08/25 05:01:11;;;;;;;2.10;1.50;;;25.00;51.10;;;;;;5083155;28;20051;-66
2022/08/25 05:03:37;;;;;;;1.95;1.48;;;25.10;51.20;;;;;;5083990;28;20306;-63
2022/08/25 05:06:04;;;;;;;1.70;1.38;;;25.10;51.20;;;;;;5084620;28;20032;-63
2022/08/25 05:08:30;;;;;;;1.60;1.30;;;25.00;51.10;;;;;;5084805;28;20128;-63
2022/08/25 05:10:56;;;;;;;1.85;1.42;;;25.00;51.10;;;;;;5083587;28;20051;-63
2022/08/25 05:13:24;;;;;;;1.92;1.48;;;25.00;51.10;;;;;;5083729;28;20495;-63
2022/08/25 05:15:54;;;;;;;1.88;1.38;;;25.00;51.10;;;;;;5083372;28;20046;-63
2022/08/25 05:18:22;;;;;;;2.10;1.40;;;25.00;51.00;;;;;;5082944;28;20103;-63
2022/08/25 05:20:48;;;;;;;1.92;1.30;;;25.00;51.00;;;;;;5083115;28;20333;-63
2022/08/25 05:23:14;;;;;;;2.00;1.40;;;25.00;51.00;;;;;;5084924;28;20411;-63
2022/08/25 05:25:41;;;;;;;1.50;1.25;;;25.00;51.10;;;;;;5082377;28;20020;-63
2022/08/25 05:28:07;;;;;;;1.50;1.20;;;25.00;51.00;;;;;;5084739;28;20024;-63
2022/08/25 05:30:33;;;;;;;1.85;1.30;;;25.00;51.00;;;;;;5082273;28;20040;-63
2022/08/25 05:32:59;;;;;;;1.88;1.40;;;25.00;51.10;;;;;;5083297;28;20028;-63
2022/08/25 05:35:24;;;;;;;1.80;1.38;;;25.00;51.10;;;;;;5083320;28;20032;-63
2022/08/25 05:37:50;;;;;;;1.80;1.45;;;25.00;51.00;;;;;;5082530;28;20078;-63
2022/08/25 05:40:15;;;;;;;2.25;1.58;;;25.00;51.00;;;;;;5083134;28;20017;-63
2022/08/25 05:42:41;;;;;;;1.80;1.42;;;25.00;50.90;;;;;;5082858;28;20025;-63
2022/08/25 05:45:08;;;;;;;1.80;1.40;;;25.00;51.00;;;;;;5083820;28;20487;-63
2022/08/25 05:47:34;;;;;;;1.75;1.50;;;25.10;51.00;;;;;;5081317;28;20037;-63
2022/08/25 05:50:00;;;;;;;1.98;1.50;;;25.00;51.00;;;;;;5083242;28;20086;-63
2022/08/25 05:52:26;;;;;;;1.90;1.40;;;25.00;51.00;;;;;;5082914;28;20029;-63
2022/08/25 05:54:52;;;;;;;1.60;1.40;;;25.00;51.00;;;;;;5082083;28;20103;-62
2022/08/25 05:57:18;;;;;;;1.63;1.40;;;25.00;50.90;;;;;;5083629;28;20595;-63
2022/08/25 05:59:43;;;;;;;1.98;1.40;;;25.00;51.40;;;;;;5082758;28;20024;-63
2022/08/25 06:04:57;;;;;;;1.88;1.42;;;25.00;50.90;;;;;;5082494;28;20035;-62
2022/08/25 06:07:22;;;;;;;1.63;1.27;;;25.00;50.90;;;;;;5082141;28;20025;-63
2022/08/25 06:09:48;;;;;;;1.88;1.50;;;25.00;50.80;;;;;;5082563;28;20028;-63
2022/08/25 06:12:15;;;;;;;1.77;1.30;;;25.00;50.90;;;;;;5081847;28;20028;-63
2022/08/25 06:14:41;;;;;;;1.73;1.40;;;25.00;50.80;;;;;;5080883;28;20102;-65
2022/08/25 06:17:07;;;;;;;1.92;1.40;;;25.00;50.90;;;;;;5084048;28;20111;-63
2022/08/25 06:19:33;;;;;;;2.10;1.50;;;25.00;50.80;;;;;;5081179;28;20025;-65
2022/08/25 06:21:58;;;;;;;1.60;1.40;;;25.00;50.80;;;;;;5083848;28;20027;-65
2022/08/25 06:24:26;;;;;;;1.67;1.40;;;25.00;50.80;;;;;;5081414;28;20021;-65
2022/08/25 06:26:52;;;;;;;1.92;1.27;;;25.00;50.80;;;;;;5083159;28;20472;-65
2022/08/25 06:29:18;;;;;;;1.67;1.33;;;25.00;50.80;;;;;;5081325;28;20035;-65
2022/08/25 06:31:45;;;;;;;1.73;1.35;;;25.00;50.90;;;;;;5082340;28;20119;-65
2022/08/25 06:34:12;;;;;;;1.90;1.45;;;25.00;50.90;;;;;;5082599;28;20043;-65
2022/08/25 06:36:38;;;;;;;1.95;1.40;;;25.00;50.90;;;;;;5082396;28;20095;-64
2022/08/25 06:39:03;;;;;;;1.90;1.42;;;25.00;50.90;;;;;;5082049;28;20107;-64
2022/08/25 06:41:29;;;;;;;1.75;1.35;;;25.00;50.90;;;;;;5082019;28;20029;-64
2022/08/25 06:43:55;;;;;;;1.73;1.42;;;25.00;50.90;;;;;;5082116;28;20024;-65
2022/08/25 06:46:25;;;;;;;1.77;1.33;;;25.00;50.90;;;;;;5080961;28;20494;-65
2022/08/25 06:48:51;;;;;;;1.80;1.40;;;25.00;50.90;;;;;;5080978;28;20025;-65
2022/08/25 06:51:18;;;;;;;3.97;3.33;;;25.00;50.90;;;;;;5082803;28;20039;-66
2022/08/25 06:53:47;;;;;;;5.82;4.57;;;25.00;52.70;;;;;;5081029;28;20123;-64
2022/08/25 06:56:14;;;;;;;6.40;5.30;;;25.00;53.70;;;;;;5080913;28;20025;-65
2022/08/25 06:58:40;;;;;;;5.25;4.40;;;25.00;54.20;;;;;;5082476;28;20028;-65
2022/08/25 07:01:12;;;;;;;5.25;4.75;;;25.00;54.60;;;;;;5081862;28;20032;-65
2022/08/25 07:03:38;;;;;;;5.68;5.10;;;24.90;55.00;;;;;;5082195;28;20035;-66
2022/08/25 07:06:04;;;;;;;5.65;4.70;;;24.90;55.30;;;;;;5080784;28;20232;-65
2022/08/25 07:08:30;;;;;;;5.30;4.80;;;24.90;55.30;;;;;;5082521;28;20067;-65
2022/08/25 07:10:56;;;;;;;6.55;4.95;;;24.90;55.60;;;;;;5081085;28;20097;-66
2022/08/25 07:13:22;;;;;;;5.10;4.60;;;24.80;55.80;;;;;;5081331;28;20037;-65
2022/08/25 07:15:53;;;;;;;5.85;5.20;;;24.80;56.00;;;;;;5081193;28;20074;-65
2022/08/25 07:18:18;;;;;;;5.95;4.72;;;24.80;56.20;;;;;;5082655;28;20077;-66
2022/08/25 07:20:44;;;;;;;8.20;5.57;;;24.80;56.30;;;;;;5081208;28;20399;-62
2022/08/25 07:23:10;;;;;;;5.35;4.65;;;24.70;56.50;;;;;;5080527;28;20107;-64
2022/08/25 07:25:36;;;;;;;6.10;4.80;;;24.80;56.60;;;;;;5081434;28;20435;-63
2022/08/25 07:28:02;;;;;;;5.85;5.22;;;24.70;56.50;;;;;;5081410;28;20025;-65
2022/08/25 07:30:27;;;;;;;5.50;4.90;;;24.70;57.00;;;;;;5078605;28;20484;-66
2022/08/25 07:32:53;;;;;;;6.15;4.90;;;24.70;57.00;;;;;;5081871;28;20033;-65
2022/08/25 07:35:22;;;;;;;6.07;4.70;;;24.70;57.20;;;;;;5081571;28;20024;-65
2022/08/25 07:37:50;;;;;;;6.50;5.07;;;24.70;57.30;;;;;;5080109;28;20483;-65
2022/08/25 07:40:22;;;;;;;5.55;4.32;;;24.60;57.40;;;;;;5079223;28;20017;-65
2022/08/25 07:42:50;;;;;;;6.65;5.05;;;24.60;57.70;;;;;;5080019;28;20503;-65
2022/08/25 07:45:17;;;;;;;6.03;4.68;;;24.60;57.70;;;;;;5079368;28;20025;-65
2022/08/25 07:47:43;;;;;;;5.00;4.50;;;24.60;57.90;;;;;;5080682;28;20025;-65
2022/08/25 07:50:11;;;;;;;5.28;4.78;;;24.60;58.00;;;;;;5081647;28;20031;-65
2022/08/25 07:52:37;;;;;;;6.22;4.63;;;24.60;57.90;;;;;;5080981;28;20483;-65
2022/08/25 07:55:03;;;;;;;5.63;4.47;;;24.60;57.90;;;;;;5080513;28;20047;-65
2022/08/25 07:57:29;;;;;;;5.28;4.53;;;24.60;58.20;;;;;;5080977;28;20472;-65
2022/08/25 07:59:55;;;;;;;5.97;4.88;;;24.60;58.40;;;;;;5081535;28;20032;-65
2022/08/25 08:02:21;;;;;;;5.30;4.43;;;24.50;58.50;;;;;;5079718;28;20043;-63
2022/08/25 08:04:48;;;;;;;5.22;4.72;;;24.50;59.00;;;;;;5080677;28;20020;-64
2022/08/25 08:07:19;;;;;;;5.57;4.40;;;24.50;58.90;;;;;;5080912;28;20082;-65
2022/08/25 08:09:45;;;;;;;5.47;4.40;;;24.50;58.80;;;;;;5081425;28;20107;-63
2022/08/25 08:12:11;;;;;;;4.78;4.10;;;24.50;59.20;;;;;;5078734;28;20398;-66
2022/08/25 08:14:36;;;;;;;4.30;3.85;;;24.50;59.20;;;;;;5079948;28;20029;-65
2022/08/25 08:17:07;;;;;;;4.80;4.00;;;24.60;59.50;;;;;;5081188;28;20086;-64
2022/08/25 08:19:34;;;;;;;5.50;4.85;;;24.50;59.80;;;;;;5078816;28;20391;-65
2022/08/25 08:22:02;;;;;;;5.50;4.57;;;24.50;60.00;;;;;;5080706;28;20237;-65
2022/08/25 08:24:37;;;;;;;4.90;4.40;;;24.50;59.60;;;;;;5080608;28;20119;-65
2022/08/25 08:27:04;;;;;;;4.72;4.00;;;24.50;59.50;;;;;;5080488;28;20370;-64
2022/08/25 08:29:30;;;;;;;4.53;4.13;;;24.50;59.20;;;;;;5078638;28;20228;-64
2022/08/25 08:31:55;;;;;;;4.55;3.72;;;24.50;59.20;;;;;;5080754;28;20032;-65
2022/08/25 08:34:22;;;;;;;4.10;3.63;;;24.50;59.40;;;;;;5079438;28;20540;-64
2022/08/25 08:36:48;;;;;;;4.10;3.58;;;24.50;59.40;;;;;;5080488;28;20020;-64
2022/08/25 08:39:14;;;;;;;3.95;3.40;;;24.50;59.60;;;;;;5080106;28;20074;-64
2022/08/25 08:42:17;;;;;;;4.13;3.72;;;24.50;59.20;;;;;;5081306;28;20514;-65
2022/08/25 08:45:14;;;;;;;4.43;3.33;;;24.50;59.40;;;;;;5080845;28;20024;-64
2022/08/25 08:47:49;;;;;;;4.03;3.63;;;24.50;59.20;;;;;;5080120;28;20094;-65
2022/08/25 08:50:36;;;;;;;4.30;3.30;;;24.50;59.00;;;;;;5079629;28;20039;-64
2022/08/25 08:53:12;;;;;;;4.40;3.72;;;24.50;58.90;;;;;;5078962;28;20028;-64
2022/08/25 08:55:59;;;;;;;4.05;3.63;;;24.50;59.30;;;;;;5080532;28;20040;-65
2022/08/25 08:58:46;;;;;;;4.00;3.60;;;24.50;58.70;;;;;;5078170;28;20032;-65
2022/08/25 09:01:17;;;;;;;4.13;3.58;;;24.50;58.50;;;;;;5079483;28;20111;-65
2022/08/25 09:03:55;;;;;;;3.90;3.45;;;24.50;58.40;;;;;;5078370;28;20741;-65
2022/08/25 09:06:43;;;;;;;3.75;3.25;;;24.50;58.80;;;;;;5079075;28;20492;-64
2022/08/25 09:09:13;;;;;;;4.43;3.60;;;24.50;58.30;;;;;;5080493;28;20025;-64
2022/08/25 09:12:16;;;;;;;4.20;3.80;;;24.50;58.10;;;;;;5082742;28;20425;-65
2022/08/25 09:15:01;;;;;;;4.18;3.63;;;24.50;58.10;;;;;;5081569;28;20040;-64
2022/08/25 09:18:17;;;;;;;4.25;3.50;;;24.50;57.90;;;;;;5082568;28;20576;-64
2022/08/25 09:20:50;;;;;;;3.67;3.28;;;24.50;57.90;;;;;;5042263;28;20046;-64
2022/08/25 09:23:32;;;;;;;3.72;3.35;;;24.50;57.70;;;;;;5083166;28;20119;-64
2022/08/25 09:26:37;;;;;;;3.33;2.95;;;24.50;57.70;;;;;;5081781;28;20033;-64
2022/08/25 09:29:11;;;;;;;4.03;3.17;;;24.60;57.70;;;;;;5071252;28;20609;-64
2022/08/25 09:31:39;;;;;;;4.30;3.63;;;24.50;57.50;;;;;;5081460;28;20143;-64
2022/08/25 09:34:12;;;;;;;3.92;3.42;;;24.50;57.50;;;;;;5083471;28;20043;-64
2022/08/25 09:36:37;;;;;;;3.85;3.35;;;24.50;57.40;;;;;;5083394;28;20089;-64
2022/08/25 09:39:04;;;;;;;3.72;3.28;;;24.60;57.40;;;;;;5083283;28;20020;-64
2022/08/25 09:41:42;;;;;;;4.50;3.50;;;24.60;57.30;;;;;;5081528;28;20031;-64
2022/08/25 09:44:18;;;;;;;4.00;3.17;;;24.60;57.30;;;;;;5081968;28;20356;-61
2022/08/25 09:47:01;;;;;;;4.65;3.28;;;24.60;57.30;;;;;;5082132;28;20020;-64
2022/08/25 09:49:40;;;;;;;3.97;3.33;;;24.60;57.20;;;;;;5080259;28;20115;-64
2022/08/25 09:52:26;;;;;;;4.32;3.50;;;24.60;57.10;;;;;;5082458;28;20035;-64
2022/08/25 09:54:54;;;;;;;3.47;3.05;;;24.60;57.10;;;;;;5083704;28;20070;-64
2022/08/25 09:57:42;;;;;;;3.83;3.15;;;24.60;57.00;;;;;;5078749;28;20568;-64
2022/08/25 10:00:17;;;;;;;4.28;3.42;;;24.60;57.00;;;;;;5079479;28;20099;-64
2022/08/25 10:02:51;;;;;;;4.50;3.40;;;24.60;56.90;;;;;;5082288;28;20033;-64
2022/08/25 10:05:18;;;;;;;3.63;3.22;;;24.60;56.80;;;;;;5081862;28;20384;-64
2022/08/25 10:07:59;;;;;;;3.65;3.25;;;24.70;56.70;;;;;;5082956;28;20028;-64
2022/08/25 10:10:36;;;;;;;4.18;3.42;;;24.70;56.70;;;;;;5082189;28;20089;-64
2022/08/25 10:13:11;;;;;;;3.92;3.42;;;24.70;56.60;;;;;;5082546;28;20090;-64
2022/08/25 10:15:37;;;;;;;3.85;3.15;;;24.70;56.50;;;;;;5082158;28;20388;-64
2022/08/25 10:18:28;;;;;;;3.45;3.08;;;24.70;56.50;;;;;;5081232;28;20024;-64
2022/08/25 10:21:13;;;;;;;3.80;3.10;;;24.70;56.40;;;;;;5079633;28;20020;-64
2022/08/25 10:23:48;;;;;;;4.53;3.40;;;24.70;56.40;;;;;;5082149;28;20032;-64
2022/08/25 10:26:43;;;;;;;3.47;3.17;;;24.70;56.30;;;;;;5081650;28;20028;-64
2022/08/25 10:29:21;;;;;;;4.10;3.58;;;24.80;56.40;;;;;;5054675;28;20138;-65
2022/08/25 10:31:56;;;;;;;4.40;3.30;;;24.70;56.20;;;;;;5081992;28;20044;-64
2022/08/25 10:34:47;;;;;;;4.28;3.30;;;24.70;56.20;;;;;;5080171;28;20028;-65
2022/08/25 10:37:31;;;;;;;4.60;3.00;;;24.80;56.20;;;;;;5072218;28;20511;-64
2022/08/25 10:40:05;;;;;;;3.80;3.20;;;24.80;56.10;;;;;;5082460;28;20028;-65
2022/08/25 10:42:39;;;;;;;3.88;3.22;;;24.80;56.10;;;;;;5079275;28;20563;-64
2022/08/25 10:48:11;;;;;;;3.90;3.30;;;24.80;56.00;;;;;;5080257;28;20534;-64
2022/08/25 10:50:45;;;;;;;3.67;3.03;;;24.80;56.00;;;;;;5080931;28;20081;-64
2022/08/25 10:53:32;;;;;;;4.00;3.30;;;24.80;55.90;;;;;;5080226;28;20437;-65
2022/08/25 10:56:34;;;;;;;4.35;3.30;;;24.80;55.90;;;;;;5081249;28;20394;-65
2022/08/25 10:59:15;;;;;;;3.90;3.25;;;24.80;55.90;;;;;;5080671;28;20802;-64
2022/08/25 11:02:00;;;;;;;3.58;3.13;;;24.80;55.80;;;;;;5078833;28;20052;-65
2022/08/25 11:04:34;;;;;;;3.95;3.15;;;24.80;55.70;;;;;;5078437;28;20111;-64
2022/08/25 11:07:10;;;;;;;3.88;3.13;;;24.80;55.60;;;;;;5080415;28;20850;-65
2022/08/25 11:09:46;;;;;;;3.30;2.80;;;24.80;56.00;;;;;;5079879;28;20103;-65
2022/08/25 11:12:39;;;;;;;3.70;3.10;;;24.80;55.40;;;;;;5081772;28;20349;-65
2022/08/25 11:15:28;;;;;;;3.60;2.97;;;24.80;55.30;;;;;;5078531;28;20021;-65
2022/08/25 11:18:05;;;;;;;4.22;3.15;;;24.80;55.20;;;;;;5077613;28;20028;-67
2022/08/25 11:21:19;;;;;;;3.42;2.90;;;24.80;55.10;;;;;;5080972;28;20494;-66
2022/08/25 11:24:02;;;;;;;4.50;3.47;;;24.80;55.10;;;;;;5053971;28;20032;-66
2022/08/25 11:26:33;;;;;;;3.90;3.15;;;24.90;55.10;;;;;;5081279;28;20024;-65
2022/08/25 11:29:11;;;;;;;4.07;3.13;;;24.80;55.00;;;;;;5079490;28;20031;-64
2022/08/25 11:31:41;;;;;;;3.30;2.90;;;24.90;55.10;;;;;;5079227;28;20462;-64
2022/08/25 11:34:15;;;;;;;3.60;2.97;;;24.90;55.10;;;;;;5080151;28;20132;-64
2022/08/25 11:36:49;;;;;;;3.75;3.20;;;24.90;55.00;;;;;;5080811;28;20486;-64
2022/08/25 11:39:35;;;;;;;3.35;3.00;;;24.90;55.00;;;;;;5082474;28;20059;-65
2022/08/25 11:42:22;;;;;;;4.10;3.33;;;24.90;55.00;;;;;;5081476;28;20034;-65
2022/08/25 11:44:50;;;;;;;3.40;2.95;;;24.90;55.00;;;;;;5080354;28;20025;-65
2022/08/25 11:47:28;;;;;;;3.83;3.17;;;24.90;55.00;;;;;;5080752;28;20178;-65
2022/08/25 11:50:35;;;;;;;3.65;3.00;;;24.90;54.90;;;;;;5080674;28;20031;-66
2022/08/25 11:53:25;;;;;;;4.78;3.35;;;24.90;54.90;;;;;;5081495;28;20024;-65
2022/08/25 11:55:54;;;;;;;4.13;3.15;;;24.90;54.90;;;;;;5080535;28;20163;-65
2022/08/25 11:58:52;;;;;;;4.07;3.30;;;24.90;54.90;;;;;;5081559;28;20475;-64
2022/08/25 12:01:41;;;;;;;3.85;3.22;;;24.90;54.80;;;;;;5030056;28;20043;-65
2022/08/25 12:04:12;;;;;;;;;;;24.90;54.80;;;;;;5081089;28;20036;-65
2022/08/25 12:07:07;;;;;;;4.43;3.17;;;24.90;54.80;;;;;;5081429;28;19961;-64
2022/08/25 12:09:53;;;;;;;4.20;3.30;;;24.90;54.80;;;;;;5081719;28;20025;-66
2022/08/25 12:12:44;;;;;;;4.13;2.90;;;24.90;54.70;;;;;;5070932;28;20381;-65
2022/08/25 12:15:31;;;;;;;3.92;3.10;;;24.90;54.70;;;;;;5080753;28;20028;-66
2022/08/25 12:18:15;;;;;;;4.03;3.00;;;25.00;54.70;;;;;;5080490;28;20027;-65
2022/08/25 12:20:52;;;;;;;3.50;3.10;;;25.00;54.70;;;;;;5080062;28;20032;-64
2022/08/25 12:23:44;;;;;;;3.92;3.13;;;25.00;54.70;;;;;;5080513;28;20032;-64
2022/08/25 12:26:25;;;;;;;4.47;3.38;;;24.90;54.60;;;;;;5080643;28;20028;-65
2022/08/25 12:29:03;;;;;;;3.38;3.05;;;25.00;54.60;;;;;;5078374;28;20039;-64
2022/08/25 12:31:50;;;;;;;3.60;3.03;;;25.00;54.60;;;;;;5080043;28;20083;-66
2022/08/25 12:34:49;;;;;;;3.33;2.80;;;25.00;54.70;;;;;;5079885;28;20117;-65
2022/08/25 12:37:22;;;;;;;3.63;2.80;;;25.00;54.60;;;;;;5078747;28;20520;-65
2022/08/25 12:39:47;;;;;;;3.45;2.85;;;25.00;54.60;;;;;;5081922;28;20094;-65
2022/08/25 12:42:34;;;;;;;3.72;2.92;;;25.00;54.60;;;;;;5079451;28;20437;-65
2022/08/25 12:45:19;;;;;;;4.10;3.10;;;25.00;54.50;;;;;;5084198;28;20090;-65
2022/08/25 12:47:47;;;;;;;3.63;2.88;;;25.00;54.60;;;;;;5073756;28;20131;-65
2022/08/25 12:50:33;;;;;;;3.60;3.10;;;25.00;54.60;;;;;;5083869;28;20537;-64
2022/08/25 12:53:26;;;;;;;3.60;3.08;;;25.00;54.70;;;;;;5084697;28;20032;-66
2022/08/25 12:55:59;;;;;;;3.58;3.10;;;25.00;54.70;;;;;;5083475;28;20024;-65
2022/08/25 12:58:46;;;;;;;3.65;3.10;;;25.00;54.70;;;;;;5085391;28;20020;-66
2022/08/25 13:01:49;;;;;;;3.53;2.88;;;25.00;54.60;;;;;;5080498;28;20028;-66
2022/08/25 13:04:23;;;;;;;3.95;3.00;;;25.00;54.70;;;;;;5084519;28;20024;-64
2022/08/25 13:07:05;;;;;;;3.70;2.90;;;25.10;54.70;;;;;;5083065;28;20124;-66
2022/08/25 13:09:42;;;;;;;3.85;2.90;;;25.10;54.80;;;;;;5083689;28;20081;-66
2022/08/25 13:12:37;;;;;;;3.60;3.00;;;25.10;54.70;;;;;;5083091;28;20024;-65
2022/08/25 13:15:03;;;;;;;3.70;2.97;;;25.10;54.70;;;;;;5063534;28;20033;-66
2022/08/25 13:17:34;;;;;;;3.75;3.28;;;25.10;54.60;;;;;;5084223;28;20028;-66
2022/08/25 13:20:15;;;;;;;4.90;3.00;;;25.10;54.70;;;;;;5084068;28;20032;-65